createdAt,value
2018-05-17T00:01:06.586Z,95.60
2018-05-17T00:03:34.843Z,95.70
2018-05-17T00:06:02.319Z,95.60
2018-05-17T00:08:30.798Z,95.50
2018-05-17T00:10:59.064Z,95.40
2018-05-17T00:13:26.537Z,95.40
2018-05-17T00:15:54.789Z,95.40
2018-05-17T00:18:23.112Z,95.50
2018-05-17T00:20:50.593Z,95.30
2018-05-17T00:23:18.078Z,95.30
2018-05-17T00:25:45.550Z,95.10
2018-05-17T00:28:13.886Z,95.40
2018-05-17T00:30:41.617Z,95.40
2018-05-17T00:33:09.090Z,95.30
2018-05-17T00:35:36.573Z,95.40
2018-05-17T00:38:04.068Z,95.30
2018-05-17T00:40:32.323Z,95.40
2018-05-17T00:42:59.811Z,95.40
2018-05-17T00:45:28.049Z,95.40
2018-05-17T00:47:55.530Z,95.30
2018-05-17T00:50:23.769Z,95.50
2018-05-17T00:53:03.089Z,95.50
2018-05-17T00:55:30.742Z,95.50
2018-05-17T00:57:58.225Z,95.50
2018-05-17T01:00:25.728Z,95.80
2018-05-17T01:02:54.159Z,95.50
2018-05-17T01:05:21.681Z,95.40
2018-05-17T01:07:49.171Z,95.50
2018-05-17T01:10:16.640Z,95.30
2018-05-17T01:12:44.206Z,95.60
2018-05-17T01:15:11.708Z,95.50
2018-05-17T01:17:39.930Z,95.80
2018-05-17T01:20:07.426Z,95.80
2018-05-17T01:22:35.701Z,96.10
2018-05-17T01:25:03.935Z,96.00
2018-05-17T01:27:31.420Z,95.90
2018-05-17T01:29:59.515Z,96.00
2018-05-17T01:32:27.762Z,96.50
2018-05-17T01:34:56.014Z,96.90
2018-05-17T01:37:35.328Z,96.50
2018-05-17T01:40:02.805Z,96.20
2018-05-17T01:42:30.300Z,96.40
2018-05-17T01:44:57.857Z,96.40
2018-05-17T01:47:26.118Z,96.50
2018-05-17T01:49:53.709Z,96.40
2018-05-17T01:52:21.948Z,96.60
2018-05-17T01:54:49.433Z,96.50
2018-05-17T01:57:17.827Z,96.50
2018-05-17T01:59:46.055Z,96.80
2018-05-17T02:02:13.538Z,96.80
2018-05-17T02:04:41.092Z,96.60
2018-05-17T02:07:08.581Z,97.20
2018-05-17T02:09:36.199Z,96.80
2018-05-17T02:12:03.694Z,97.00
2018-05-17T02:14:31.949Z,97.10
2018-05-17T02:16:59.437Z,97.00
2018-05-17T02:19:26.926Z,97.10
2018-05-17T02:21:54.415Z,97.30
2018-05-17T02:24:22.707Z,97.30
2018-05-17T02:26:50.243Z,97.20
2018-05-17T02:29:17.729Z,97.20
2018-05-17T02:31:45.987Z,97.30
2018-05-17T02:34:13.510Z,97.30
2018-05-17T02:36:40.974Z,97.20
2018-05-17T02:39:08.643Z,97.50
2018-05-17T02:41:36.130Z,97.80
2018-05-17T02:44:04.538Z,97.80
2018-05-17T02:46:32.029Z,97.80
2018-05-17T02:48:59.525Z,97.90
2018-05-17T02:51:27.782Z,97.80
2018-05-17T02:53:55.840Z,97.70
2018-05-17T02:56:23.326Z,97.80
2018-05-17T02:58:51.590Z,98.00
2018-05-17T03:01:19.205Z,97.90
2018-05-17T03:03:46.694Z,98.00
2018-05-17T03:06:14.181Z,98.10
2018-05-17T03:08:42.538Z,98.30
2018-05-17T03:11:10.005Z,98.30
2018-05-17T03:13:37.482Z,98.20
2018-05-17T03:16:05.746Z,98.20
2018-05-17T03:18:33.231Z,98.10
2018-05-17T03:21:01.542Z,98.10
2018-05-17T03:23:29.359Z,98.10
2018-05-17T03:25:57.636Z,98.60
2018-05-17T03:28:25.137Z,98.60
2018-05-17T03:30:52.637Z,98.70
2018-05-17T03:33:20.270Z,98.60
2018-05-17T03:35:47.770Z,98.30
2018-05-17T03:38:16.029Z,98.20
2018-05-17T03:40:43.680Z,98.00
2018-05-17T03:43:11.166Z,98.10
2018-05-17T03:45:39.412Z,98.00
2018-05-17T03:48:06.899Z,97.90
2018-05-17T03:50:35.660Z,97.90
2018-05-17T03:53:03.220Z,97.90
2018-05-17T03:55:30.874Z,98.00
2018-05-17T03:57:58.353Z,98.00
2018-05-17T04:00:26.617Z,98.20
2018-05-17T04:03:06.096Z,98.30
2018-05-17T04:05:45.135Z,98.10
2018-05-17T04:08:12.759Z,98.00
2018-05-17T04:10:41.775Z,97.70
2018-05-17T04:13:10.030Z,97.80
2018-05-17T04:15:39.059Z,97.70
2018-05-17T04:18:07.818Z,97.90
2018-05-17T04:20:36.203Z,98.10
2018-05-17T04:23:04.470Z,98.30
2018-05-17T04:25:31.946Z,98.20
2018-05-17T04:28:00.712Z,98.00
2018-05-17T04:30:28.749Z,98.00
2018-05-17T04:32:56.221Z,97.80
2018-05-17T04:35:23.698Z,97.60
2018-05-17T04:37:51.962Z,97.60
2018-05-17T04:40:19.450Z,97.60
2018-05-17T04:42:46.919Z,97.60
2018-05-17T04:45:14.899Z,98.00
2018-05-17T04:47:42.549Z,97.50
2018-05-17T04:50:10.797Z,97.30
2018-05-17T04:52:38.264Z,97.30
2018-05-17T04:55:05.752Z,97.20
2018-05-17T04:57:33.241Z,97.80
2018-05-17T05:00:00.720Z,97.40
2018-05-17T05:02:28.210Z,97.10
2018-05-17T05:04:56.453Z,97.10
2018-05-17T05:07:24.444Z,97.00
2018-05-17T05:09:52.795Z,97.10
2018-05-17T05:12:20.281Z,97.00
2018-05-17T05:14:48.533Z,97.40
2018-05-17T05:17:16.009Z,97.30
2018-05-17T05:19:44.356Z,97.50
2018-05-17T05:22:11.841Z,97.40
2018-05-17T05:24:39.337Z,97.70
2018-05-17T05:27:06.824Z,97.40
2018-05-17T05:29:34.375Z,97.50
2018-05-17T05:32:01.897Z,97.60
2018-05-17T05:34:30.146Z,97.40
2018-05-17T05:36:58.105Z,97.40
2018-05-17T05:39:25.634Z,97.60
2018-05-17T05:41:53.109Z,97.40
2018-05-17T05:44:20.627Z,97.30
2018-05-17T05:46:48.230Z,97.70
2018-05-17T05:49:15.733Z,97.40
2018-05-17T05:51:43.200Z,97.10
2018-05-17T05:54:10.675Z,97.00
2018-05-17T05:56:38.194Z,97.40
2018-05-17T05:59:06.481Z,96.80
2018-05-17T06:01:34.736Z,96.80
2018-05-17T06:04:04.007Z,96.60
2018-05-17T06:06:31.506Z,96.50
2018-05-17T06:08:59.762Z,96.20
2018-05-17T06:11:27.243Z,96.10
2018-05-17T06:13:55.990Z,96.20
2018-05-17T06:16:23.492Z,96.20
2018-05-17T06:18:51.753Z,96.10
2018-05-17T06:21:20.009Z,96.00
2018-05-17T06:23:48.056Z,96.00
2018-05-17T06:26:15.493Z,96.40
2018-05-17T06:28:43.127Z,96.70
2018-05-17T06:31:11.395Z,96.40
2018-05-17T06:33:39.087Z,96.40
2018-05-17T06:36:06.565Z,96.40
2018-05-17T06:38:34.055Z,96.60
2018-05-17T06:41:01.634Z,96.50
2018-05-17T06:43:30.053Z,96.30
2018-05-17T06:45:57.553Z,96.20
2018-05-17T06:48:25.100Z,96.60
2018-05-17T06:50:52.874Z,96.50
2018-05-17T06:53:20.362Z,96.40
2018-05-17T06:55:48.675Z,96.40
2018-05-17T06:58:16.282Z,96.40
2018-05-17T07:00:43.826Z,96.40
2018-05-17T07:03:11.422Z,96.50
2018-05-17T07:05:39.701Z,96.80
2018-05-17T07:08:07.957Z,96.90
2018-05-17T07:10:37.048Z,96.80
2018-05-17T07:13:06.127Z,96.80
2018-05-17T07:15:33.620Z,97.20
2018-05-17T07:18:01.905Z,96.90
2018-05-17T07:20:30.854Z,97.20
2018-05-17T07:22:58.362Z,97.20
2018-05-17T07:25:25.865Z,97.20
2018-05-17T07:27:53.341Z,97.40
2018-05-17T07:30:21.822Z,97.80
2018-05-17T07:32:49.291Z,97.40
2018-05-17T07:35:16.956Z,97.30
2018-05-17T07:37:45.242Z,97.80
2018-05-17T07:40:13.497Z,97.50
2018-05-17T07:42:41.816Z,97.40
2018-05-17T07:45:09.294Z,97.40
2018-05-17T07:47:37.712Z,98.10
2018-05-17T07:50:06.039Z,97.90
2018-05-17T07:52:33.502Z,97.80
2018-05-17T07:55:00.982Z,97.60
2018-05-17T07:57:28.648Z,97.40
2018-05-17T07:59:56.147Z,97.70
2018-05-17T08:02:24.397Z,97.30
2018-05-17T08:04:51.925Z,97.30
2018-05-17T08:07:19.456Z,97.40
2018-05-17T08:09:47.224Z,97.00
2018-05-17T08:12:14.809Z,97.20
2018-05-17T08:14:42.357Z,96.90
2018-05-17T08:17:10.014Z,97.00
2018-05-17T08:19:37.521Z,97.20
2018-05-17T08:22:05.001Z,97.30
2018-05-17T08:24:34.276Z,97.00
2018-05-17T08:27:01.888Z,97.00
2018-05-17T08:29:29.377Z,96.70
2018-05-17T08:31:57.078Z,96.40
2018-05-17T08:34:25.343Z,96.30
2018-05-17T08:36:53.650Z,96.90
2018-05-17T08:39:21.140Z,96.50
2018-05-17T08:41:48.631Z,96.10
2018-05-17T08:44:16.895Z,96.20
2018-05-17T08:46:44.391Z,96.30
2018-05-17T08:49:12.703Z,95.80
2018-05-17T08:51:40.307Z,95.70
2018-05-17T08:54:07.790Z,96.00
2018-05-17T08:56:35.266Z,95.80
2018-05-17T08:59:02.776Z,95.80
2018-05-17T09:01:31.787Z,95.40
2018-05-17T09:04:00.121Z,95.30
2018-05-17T09:06:27.615Z,95.20
2018-05-17T09:08:55.898Z,95.20
2018-05-17T09:11:24.169Z,94.90
2018-05-17T09:13:52.463Z,95.30
2018-05-17T09:16:20.726Z,95.20
2018-05-17T09:18:49.221Z,94.70
2018-05-17T09:21:16.725Z,94.60
2018-05-17T09:23:44.236Z,94.60
2018-05-17T09:26:12.529Z,94.20
2018-05-17T09:28:40.037Z,94.20
2018-05-17T09:31:07.590Z,93.90
2018-05-17T09:33:35.064Z,94.30
2018-05-17T09:36:02.550Z,94.00
2018-05-17T09:38:30.031Z,94.00
2018-05-17T09:40:57.610Z,93.60
2018-05-17T09:43:25.098Z,93.80
2018-05-17T09:45:52.577Z,93.60
2018-05-17T09:48:20.101Z,93.30
2018-05-17T09:50:47.595Z,93.10
2018-05-17T09:53:15.212Z,92.90
2018-05-17T09:55:42.753Z,93.10
2018-05-17T09:58:10.356Z,92.90
2018-05-17T10:00:44.407Z,93.90
2018-05-17T10:03:11.907Z,93.70
2018-05-17T10:05:40.186Z,93.00
2018-05-17T10:08:08.177Z,93.00
2018-05-17T10:10:36.433Z,92.80
2018-05-17T10:13:05.530Z,92.90
2018-05-17T10:15:33.867Z,92.90
2018-05-17T10:18:01.279Z,92.90
2018-05-17T10:20:29.537Z,93.50
2018-05-17T10:22:57.100Z,93.40
2018-05-17T10:25:25.373Z,93.30
2018-05-17T10:27:52.869Z,93.20
2018-05-17T10:30:21.234Z,93.10
2018-05-17T10:32:49.625Z,92.90
2018-05-17T10:35:18.058Z,92.60
2018-05-17T10:37:45.528Z,92.50
2018-05-17T10:40:14.976Z,92.80
2018-05-17T10:42:42.459Z,92.70
2018-05-17T10:45:09.964Z,92.50
2018-05-17T10:47:38.240Z,92.00
2018-05-17T10:50:06.504Z,92.50
2018-05-17T10:52:34.016Z,92.50
2018-05-17T10:55:01.519Z,92.10
2018-05-17T10:57:29.001Z,92.30
2018-05-17T10:59:57.254Z,93.10
2018-05-17T11:02:24.749Z,93.10
2018-05-17T11:04:53.000Z,92.50
2018-05-17T11:07:21.360Z,93.10
2018-05-17T11:09:48.876Z,93.00
2018-05-17T11:12:16.485Z,92.60
2018-05-17T11:14:44.089Z,92.40
2018-05-17T11:17:11.578Z,92.40
2018-05-17T11:19:39.100Z,92.00
2018-05-17T11:22:06.631Z,91.80
2018-05-17T11:24:34.194Z,91.80
2018-05-17T11:27:02.444Z,92.10
2018-05-17T11:29:29.930Z,92.00
2018-05-17T11:31:58.667Z,92.10
2018-05-17T11:34:26.159Z,92.10
2018-05-17T11:36:54.463Z,91.80
2018-05-17T11:39:21.946Z,91.70
2018-05-17T11:41:49.420Z,91.60
2018-05-17T11:44:16.969Z,91.50
2018-05-17T11:46:44.469Z,91.40
2018-05-17T11:49:11.970Z,91.60
2018-05-17T11:51:39.840Z,92.00
2018-05-17T11:54:07.349Z,91.70
2018-05-17T11:56:36.433Z,91.90
2018-05-17T11:59:03.938Z,91.80
2018-05-17T12:01:31.493Z,91.80
2018-05-17T12:03:59.101Z,91.10
2018-05-17T12:06:26.568Z,91.50
2018-05-17T12:08:54.084Z,91.20
2018-05-17T12:11:21.587Z,91.20
2018-05-17T12:13:49.071Z,91.30
2018-05-17T12:16:17.399Z,90.90
2018-05-17T12:18:45.824Z,90.90
2018-05-17T12:21:14.127Z,90.30
2018-05-17T12:23:41.614Z,90.20
2018-05-17T12:26:09.168Z,90.50
2018-05-17T12:28:36.653Z,90.40
2018-05-17T12:31:04.295Z,89.40
2018-05-17T12:33:31.763Z,89.30
2018-05-17T12:35:59.458Z,88.30
2018-05-17T12:38:27.913Z,89.30
2018-05-17T12:40:55.565Z,89.20
2018-05-17T12:43:23.080Z,90.00
2018-05-17T12:45:51.494Z,89.10
2018-05-17T12:48:18.968Z,89.10
2018-05-17T12:50:46.475Z,89.20
2018-05-17T12:53:14.760Z,88.40
2018-05-17T12:55:42.237Z,88.40
2018-05-17T12:58:09.758Z,89.10
2018-05-17T13:00:37.314Z,88.00
2018-05-17T13:03:05.682Z,88.00
2018-05-17T13:05:33.300Z,88.00
2018-05-17T13:08:00.770Z,89.20
2018-05-17T13:10:28.333Z,86.60
2018-05-17T13:12:55.943Z,86.60
2018-05-17T13:15:24.152Z,87.20
2018-05-17T13:17:52.601Z,86.80
2018-05-17T13:20:20.125Z,86.20
2018-05-17T13:22:48.596Z,83.90
2018-05-17T13:25:16.857Z,85.10
2018-05-17T13:27:44.353Z,85.20
2018-05-17T13:30:13.360Z,84.50
2018-05-17T13:32:40.761Z,84.50
2018-05-17T13:35:08.239Z,83.60
2018-05-17T13:37:37.296Z,84.00
2018-05-17T13:40:04.779Z,83.20
2018-05-17T13:42:32.366Z,82.50
2018-05-17T13:44:59.851Z,83.70
2018-05-17T13:47:28.291Z,84.40
2018-05-17T13:49:55.818Z,84.40
2018-05-17T13:52:23.437Z,83.70
2018-05-17T13:54:51.667Z,84.30
2018-05-17T13:57:20.210Z,83.70
2018-05-17T13:59:47.943Z,83.20
2018-05-17T14:02:15.487Z,83.80
2018-05-17T14:04:43.958Z,84.10
2018-05-17T14:07:11.446Z,83.70
2018-05-17T14:09:39.748Z,85.30
2018-05-17T14:12:07.229Z,84.60
2018-05-17T14:14:34.769Z,84.20
2018-05-17T14:17:02.284Z,82.80
2018-05-17T14:19:29.959Z,83.00
2018-05-17T14:21:57.434Z,83.50
2018-05-17T14:24:25.798Z,82.80
2018-05-17T14:26:54.067Z,84.10
2018-05-17T14:29:21.663Z,84.00
2018-05-17T14:31:49.191Z,84.30
2018-05-17T14:34:16.669Z,84.20
2018-05-17T14:36:45.299Z,83.90
2018-05-17T14:39:13.519Z,83.80
2018-05-17T14:41:41.764Z,83.90
2018-05-17T14:44:09.306Z,83.70
2018-05-17T14:46:36.805Z,82.50
2018-05-17T14:49:05.096Z,81.30
2018-05-17T14:51:33.380Z,80.70
2018-05-17T14:54:00.879Z,80.60
2018-05-17T14:56:28.349Z,81.10
2018-05-17T14:58:55.863Z,81.30
2018-05-17T15:01:23.395Z,80.70
2018-05-17T15:03:52.421Z,81.00
2018-05-17T15:06:19.895Z,81.00
2018-05-17T15:08:47.488Z,80.70
2018-05-17T15:11:15.761Z,80.80
2018-05-17T15:13:43.209Z,80.70
2018-05-17T15:16:10.711Z,80.40
2018-05-17T15:18:38.954Z,80.10
2018-05-17T15:21:06.433Z,80.10
2018-05-17T15:23:34.720Z,79.60
2018-05-17T15:26:02.201Z,79.60
2018-05-17T15:28:29.679Z,79.60
2018-05-17T15:30:57.176Z,78.20
2018-05-17T15:33:25.431Z,78.10
2018-05-17T15:35:52.910Z,78.10
2018-05-17T15:38:21.189Z,78.10
2018-05-17T15:40:49.464Z,77.80
2018-05-17T15:43:17.702Z,76.90
2018-05-17T15:45:45.267Z,76.80
2018-05-17T15:48:12.897Z,75.80
2018-05-17T15:50:40.914Z,75.10
2018-05-17T15:53:08.409Z,74.00
2018-05-17T15:55:36.669Z,74.70
2018-05-17T15:58:04.973Z,74.30
2018-05-17T16:00:32.482Z,74.20
2018-05-17T16:02:59.997Z,74.80
2018-05-17T16:05:27.559Z,74.00
2018-05-17T16:07:55.067Z,74.80
2018-05-17T16:10:22.629Z,73.90
2018-05-17T16:12:50.103Z,72.90
2018-05-17T16:15:17.959Z,73.10
2018-05-17T16:17:45.352Z,72.40
2018-05-17T16:20:12.833Z,71.40
2018-05-17T16:22:40.327Z,73.90
2018-05-17T16:25:08.602Z,72.10
2018-05-17T16:27:36.882Z,72.50
2018-05-17T16:30:04.465Z,72.40
2018-05-17T16:32:31.935Z,72.80
2018-05-17T16:34:59.416Z,73.30
2018-05-17T16:37:26.902Z,72.20
2018-05-17T16:39:55.055Z,73.90
2018-05-17T16:42:23.207Z,72.20
2018-05-17T16:44:50.683Z,73.20
2018-05-17T16:47:18.195Z,73.90
2018-05-17T16:49:45.692Z,71.70
2018-05-17T16:52:13.973Z,75.00
2018-05-17T16:54:41.459Z,75.00
2018-05-17T16:57:08.942Z,76.50
2018-05-17T16:59:36.426Z,76.70
2018-05-17T17:02:03.972Z,76.00
2018-05-17T17:04:31.420Z,75.10
2018-05-17T17:06:58.990Z,75.30
2018-05-17T17:09:27.250Z,75.40
2018-05-17T17:11:54.750Z,75.30
2018-05-17T17:14:22.259Z,75.90
2018-05-17T17:16:50.521Z,74.50
2018-05-17T17:19:18.042Z,74.50
2018-05-17T17:21:46.461Z,76.30
2018-05-17T17:24:14.760Z,76.10
2018-05-17T17:26:42.981Z,77.50
2018-05-17T17:29:10.464Z,77.40
2018-05-17T17:31:37.948Z,78.10
2018-05-17T17:34:06.203Z,77.60
2018-05-17T17:36:33.684Z,77.50
2018-05-17T17:39:01.260Z,77.40
2018-05-17T17:41:28.673Z,78.20
2018-05-17T17:43:56.286Z,77.90
2018-05-17T17:46:23.773Z,78.70
2018-05-17T17:48:51.326Z,78.40
2018-05-17T17:51:18.826Z,79.10
2018-05-17T17:53:47.085Z,78.70
2018-05-17T17:56:14.564Z,78.60
2018-05-17T17:58:43.454Z,79.60
2018-05-17T18:01:11.725Z,80.70
2018-05-17T18:03:39.987Z,80.10
2018-05-17T18:06:07.468Z,80.10
2018-05-17T18:08:35.175Z,80.50
2018-05-17T18:11:02.690Z,80.70
2018-05-17T18:13:30.948Z,80.70
2018-05-17T18:15:59.238Z,80.90
2018-05-17T18:18:27.485Z,80.60
2018-05-17T18:20:54.956Z,80.50
2018-05-17T18:23:23.203Z,81.60
2018-05-17T18:25:50.744Z,81.50
2018-05-17T18:28:18.242Z,82.30
2018-05-17T18:30:45.758Z,82.90
2018-05-17T18:33:13.234Z,83.80
2018-05-17T18:35:40.738Z,83.80
2018-05-17T18:38:08.999Z,84.40
2018-05-17T18:40:36.458Z,84.40
2018-05-17T18:43:04.783Z,84.90
2018-05-17T18:45:32.979Z,84.80
2018-05-17T18:48:00.463Z,85.60
2018-05-17T18:50:27.958Z,86.10
2018-05-17T18:52:55.632Z,86.00
2018-05-17T18:55:23.141Z,86.20
2018-05-17T18:57:50.597Z,87.00
2018-05-17T19:00:18.988Z,87.00
2018-05-17T19:02:47.354Z,86.70
2018-05-17T19:05:14.872Z,86.70
2018-05-17T19:07:42.366Z,87.10
2018-05-17T19:10:09.856Z,87.70
2018-05-17T19:12:37.355Z,87.90
2018-05-17T19:15:04.870Z,88.00
2018-05-17T19:17:33.173Z,88.50
2018-05-17T19:20:00.724Z,88.40
2018-05-17T19:22:28.240Z,89.00
2018-05-17T19:24:55.773Z,89.70
2018-05-17T19:27:23.262Z,90.10
2018-05-17T19:29:50.762Z,90.20
2018-05-17T19:32:18.221Z,90.40
2018-05-17T19:34:46.231Z,90.50
2018-05-17T19:37:13.746Z,90.30
2018-05-17T19:39:41.979Z,90.50
2018-05-17T19:42:09.498Z,90.50
2018-05-17T19:44:36.978Z,90.60
2018-05-17T19:47:04.711Z,90.60
2018-05-17T19:49:32.229Z,90.50
2018-05-17T19:52:00.585Z,90.50
2018-05-17T19:54:28.059Z,90.50
2018-05-17T19:56:56.337Z,90.60
2018-05-17T19:59:24.690Z,90.80
2018-05-17T20:01:52.188Z,90.70
2018-05-17T20:04:19.723Z,90.70
2018-05-17T20:06:47.990Z,91.00
2018-05-17T20:09:16.365Z,91.10
2018-05-17T20:11:43.855Z,91.10
2018-05-17T20:14:12.102Z,91.10
2018-05-17T20:16:40.374Z,91.10
2018-05-17T20:19:09.366Z,91.10
2018-05-17T20:21:37.618Z,91.20
2018-05-17T20:24:05.086Z,91.10
2018-05-17T20:26:32.597Z,91.20
2018-05-17T20:29:00.079Z,91.40
2018-05-17T20:31:27.586Z,91.50
2018-05-17T20:33:55.062Z,91.30
2018-05-17T20:36:23.331Z,91.40
2018-05-17T20:38:51.588Z,91.60
2018-05-17T20:41:19.069Z,91.60
2018-05-17T20:43:47.325Z,92.20
2018-05-17T20:46:15.810Z,92.10
2018-05-17T20:48:43.293Z,92.10
2018-05-17T20:51:10.801Z,92.00
2018-05-17T20:53:38.292Z,91.80
2018-05-17T20:56:06.541Z,92.70
2018-05-17T20:58:34.039Z,92.60
2018-05-17T21:01:01.525Z,92.70
2018-05-17T21:03:33.120Z,92.60
2018-05-17T21:06:00.630Z,92.80
2018-05-17T21:08:28.160Z,92.50
2018-05-17T21:10:56.409Z,92.80
2018-05-17T21:13:23.901Z,92.70
2018-05-17T21:15:52.161Z,92.40
2018-05-17T21:18:19.621Z,92.30
2018-05-17T21:20:47.857Z,92.60
2018-05-17T21:23:15.332Z,92.50
2018-05-17T21:25:42.832Z,92.30
2018-05-17T21:28:11.094Z,92.70
2018-05-17T21:30:39.325Z,92.70
2018-05-17T21:33:06.835Z,92.60
2018-05-17T21:35:35.113Z,92.90
2018-05-17T21:38:03.359Z,92.80
2018-05-17T21:40:30.825Z,92.70
2018-05-17T21:42:59.458Z,92.70
2018-05-17T21:45:26.919Z,92.60
2018-05-17T21:47:54.405Z,93.10
2018-05-17T21:50:21.886Z,92.80
2018-05-17T21:52:50.153Z,92.60
2018-05-17T21:55:17.684Z,92.60
2018-05-17T21:57:45.163Z,92.40
2018-05-17T22:00:12.687Z,92.80
2018-05-17T22:02:40.176Z,92.70
2018-05-17T22:05:07.732Z,93.40
2018-05-17T22:07:35.234Z,93.30
2018-05-17T22:10:03.452Z,93.40
2018-05-17T22:12:30.933Z,93.40
2018-05-17T22:17:32.323Z,94.10
2018-05-17T22:20:00.558Z,93.40
2018-05-17T22:22:28.045Z,93.30
2018-05-17T22:24:56.274Z,94.00
2018-05-17T22:27:23.877Z,94.00
2018-05-17T22:29:51.346Z,93.90
2018-05-17T22:32:19.602Z,93.60
2018-05-17T22:34:47.869Z,93.40
2018-05-17T22:37:15.326Z,93.30
2018-05-17T22:39:42.810Z,93.20
2018-05-17T22:42:11.068Z,93.70
2018-05-17T22:44:38.577Z,93.70
2018-05-17T22:47:06.054Z,93.50
2018-05-17T22:49:34.380Z,93.30
2018-05-17T22:52:02.610Z,93.60
2018-05-17T22:54:30.126Z,93.60
2018-05-17T22:57:10.146Z,93.50
2018-05-17T22:59:37.620Z,93.40
2018-05-17T23:02:05.903Z,93.50
2018-05-17T23:04:34.158Z,93.60
2018-05-17T23:07:01.717Z,93.60
2018-05-17T23:09:29.177Z,93.30
2018-05-17T23:11:56.666Z,92.90
2018-05-17T23:14:24.138Z,93.20
2018-05-17T23:16:51.683Z,93.40
2018-05-17T23:19:20.011Z,93.70
2018-05-17T23:21:47.492Z,93.50
2018-05-17T23:24:14.945Z,93.50
2018-05-17T23:26:43.188Z,93.40
2018-05-17T23:29:10.667Z,93.30
2018-05-17T23:31:38.182Z,93.40
2018-05-17T23:34:05.667Z,93.40
2018-05-17T23:36:33.137Z,93.60
2018-05-17T23:39:00.601Z,93.90
2018-05-17T23:41:35.811Z,93.80
2018-05-17T23:44:03.288Z,93.80
2018-05-17T23:46:30.851Z,93.70
2018-05-17T23:48:58.417Z,93.70
2018-05-17T23:51:25.892Z,93.90
2018-05-17T23:53:53.370Z,94.20
2018-05-17T23:56:20.863Z,94.00
2018-05-17T23:58:49.302Z,93.90
